Time;durP1;ratioP1;P1;durP2;ratioP2;P2;SDS_P1;SDS_P2;PMS_P1;PMS_P2;Temp;Humidity;BMP_temperature;BMP_pressure;BME280_temperature;BME280_humidity;BME280_pressure;Samples;Min_cycle;Max_cycle;Signal;HPM_P1;HPM_P2
2021/11/21 00:01:13;;;;;;;;;;;8.20;99.90;;;;;;5095420;28;19908;-78
2021/11/21 00:03:39;;;;;;;;;;;8.40;99.90;;;;;;5095209;28;19915;-78
2021/11/21 00:06:05;;;;;;;;;;;8.70;99.90;;;;;;5095197;28;19995;-78
2021/11/21 00:08:31;;;;;;;;;;;9.00;99.90;;;;;;5095088;28;19916;-78
2021/11/21 00:10:57;;;;;;;;;;;9.00;99.90;;;;;;5094995;28;20391;-78
2021/11/21 00:13:23;;;;;;;;;;;9.00;99.90;;;;;;5093753;28;19918;-78
2021/11/21 00:15:49;;;;;;;;;;;8.90;99.90;;;;;;5094754;28;19908;-78
2021/11/21 00:18:15;;;;;;;;;;;8.70;99.90;;;;;;5095270;28;19912;-79
2021/11/21 00:20:41;;;;;;;;;;;8.90;99.90;;;;;;5095024;28;19908;-78
2021/11/21 00:23:06;;;;;;;;;;;9.00;99.90;;;;;;5094871;28;20387;-78
2021/11/21 00:25:33;;;;;;;;;;;9.20;99.90;;;;;;5094827;28;19909;-78
2021/11/21 00:27:58;;;;;;;;;;;9.10;99.90;;;;;;5094767;28;19915;-78
2021/11/21 00:30:24;;;;;;;;;;;9.20;99.90;;;;;;5094677;28;19908;-78
2021/11/21 00:32:49;;;;;;;;;;;9.00;99.90;;;;;;5094782;28;20287;-77
2021/11/21 00:35:15;;;;;;;;;;;8.70;99.90;;;;;;5094681;28;19957;-78
2021/11/21 00:37:41;;;;;;;;;;;8.60;99.90;;;;;;5095185;28;19915;-78
2021/11/21 00:40:07;;;;;;;;;;;8.60;99.90;;;;;;5094513;28;19916;-78
2021/11/21 00:42:33;;;;;;;;;;;8.50;99.90;;;;;;5094799;28;19912;-78
2021/11/21 00:44:58;;;;;;;;;;;8.30;99.90;;;;;;5094539;28;20372;-78
2021/11/21 00:47:24;;;;;;;;;;;8.20;99.90;;;;;;5094174;28;20279;-78
2021/11/21 00:49:50;;;;;;;;;;;8.20;99.90;;;;;;5093834;28;19916;-78
2021/11/21 00:52:15;;;;;;;;;;;8.10;99.90;;;;;;5094280;28;20416;-78
2021/11/21 00:54:57;;;;;;;;;;;8.30;99.90;;;;;;5094302;28;19912;-78
2021/11/21 00:57:22;;;;;;;;;;;8.40;99.90;;;;;;5094506;28;19908;-78
2021/11/21 00:59:48;;;;;;;;;;;8.20;99.90;;;;;;5094217;28;20010;-78
2021/11/21 01:02:14;;;;;;;;;;;8.30;99.90;;;;;;5094629;28;20433;-78
2021/11/21 01:04:41;;;;;;;;;;;8.40;99.90;;;;;;5094054;28;19998;-78
2021/11/21 01:07:07;;;;;;;;;;;8.40;99.90;;;;;;5094247;28;19908;-78
2021/11/21 01:09:33;;;;;;;;;;;8.20;99.90;;;;;;5093643;28;20403;-78
2021/11/21 01:12:00;;;;;;;;;;;8.40;99.90;;;;;;5094007;28;19916;-78
2021/11/21 01:14:26;;;;;;;;;;;8.50;99.90;;;;;;5094196;28;19940;-78
2021/11/21 01:16:52;;;;;;;;;;;8.20;99.90;;;;;;5094103;28;20038;-78
2021/11/21 01:19:17;;;;;;;;;;;8.20;99.90;;;;;;5092667;28;19978;-78
2021/11/21 01:21:43;;;;;;;;;;;8.30;99.90;;;;;;5093897;28;19912;-78
2021/11/21 01:24:08;;;;;;;;;;;8.30;99.90;;;;;;5093867;28;19915;-78
2021/11/21 01:26:34;;;;;;;;;;;8.30;99.90;;;;;;5093843;28;19961;-78
2021/11/21 01:29:00;;;;;;;;;;;8.20;99.90;;;;;;5093875;28;19957;-78
2021/11/21 01:31:25;;;;;;;;;;;8.40;99.90;;;;;;5093784;28;19959;-78
2021/11/21 01:33:51;;;;;;;;;;;8.40;99.90;;;;;;5094020;28;19954;-78
2021/11/21 01:36:17;;;;;;;;;;;8.20;99.90;;;;;;5093743;28;19912;-78
2021/11/21 01:38:43;;;;;;;;;;;8.00;99.90;;;;;;5093896;28;19919;-78
2021/11/21 01:41:10;;;;;;;;;;;8.10;99.90;;;;;;5093733;28;20422;-78
2021/11/21 01:43:35;;;;;;;;;;;8.30;99.90;;;;;;5093770;28;19908;-78
2021/11/21 01:46:01;;;;;;;;;;;8.30;99.90;;;;;;5093878;28;20258;-78
2021/11/21 01:48:26;;;;;;;;;;;8.00;99.90;;;;;;5093661;28;19916;-78
2021/11/21 01:50:53;;;;;;;;;;;7.90;99.90;;;;;;5093684;28;19916;-78
2021/11/21 01:53:18;;;;;;;;;;;7.90;99.90;;;;;;5093850;28;19908;-78
2021/11/21 01:55:45;;;;;;;;;;;8.10;99.90;;;;;;5093618;28;20265;-78
2021/11/21 01:58:10;;;;;;;;;;;8.50;99.90;;;;;;5093542;28;20368;-78
2021/11/21 02:00:37;;;;;;;;;;;8.60;99.90;;;;;;5096573;28;19915;-78
2021/11/21 02:03:03;;;;;;;;;;;8.50;99.90;;;;;;5096325;28;19912;-78
2021/11/21 02:05:29;;;;;;;;;;;8.60;99.90;;;;;;5097750;28;20265;-78
2021/11/21 02:07:54;;;;;;;;;;;8.60;99.90;;;;;;5097551;28;19931;-78
2021/11/21 02:10:22;;;;;;;;;;;8.70;99.90;;;;;;5095721;28;19970;-77
2021/11/21 02:12:48;;;;;;;;;;;8.80;99.90;;;;;;5097418;28;19913;-78
2021/11/21 02:15:15;;;;;;;;;;;8.90;99.90;;;;;;5097328;28;19995;-78
2021/11/21 02:17:41;;;;;;;;;;;8.90;99.90;;;;;;5097319;28;19908;-78
2021/11/21 02:20:08;;;;;;;;;;;8.70;99.90;;;;;;5097379;28;19915;-78
2021/11/21 02:22:34;;;;;;;;;;;8.80;99.90;;;;;;5097171;28;19919;-78
2021/11/21 02:24:59;;;;;;;;;;;8.90;99.90;;;;;;5097175;28;19908;-78
2021/11/21 02:27:27;;;;;;;;;;;8.90;99.90;;;;;;5097138;28;20003;-78
2021/11/21 02:29:53;;;;;;;;;;;8.70;99.90;;;;;;5097068;28;19955;-78
2021/11/21 02:32:18;;;;;;;;;;;8.90;99.90;;;;;;5097061;28;20348;-78
2021/11/21 02:34:44;;;;;;;;;;;9.10;99.90;;;;;;5096982;28;19915;-78
2021/11/21 02:37:10;;;;;;;;;;;9.00;99.90;;;;;;5096888;28;20376;-78
2021/11/21 02:39:39;;;;;;;;;;;9.00;99.90;;;;;;5095575;28;19985;-78
2021/11/21 02:42:05;;;;;;;;;;;8.90;99.90;;;;;;5096844;28;19991;-78
2021/11/21 02:44:31;;;;;;;;;;;9.00;99.90;;;;;;5096850;28;20344;-78
2021/11/21 02:46:57;;;;;;;;;;;9.10;99.90;;;;;;5096794;28;19908;-78
2021/11/21 02:49:22;;;;;;;;;;;9.20;99.90;;;;;;5096711;28;19959;-78
2021/11/21 02:51:48;;;;;;;;;;;9.10;99.90;;;;;;5096832;28;19947;-78
2021/11/21 02:54:14;;;;;;;;;;;9.00;99.90;;;;;;5097173;28;19915;-78
2021/11/21 02:56:39;;;;;;;;;;;8.80;99.90;;;;;;5096688;28;20367;-78
2021/11/21 02:59:05;;;;;;;;;;;8.50;99.90;;;;;;5096509;28;19908;-78
2021/11/21 03:01:31;;;;;;;;;;;8.30;99.90;;;;;;5096621;28;19914;-78
2021/11/21 03:03:56;;;;;;;;;;;8.40;99.90;;;;;;5096545;28;19915;-78
2021/11/21 03:06:23;;;;;;;;;;;8.50;99.90;;;;;;5096589;28;19915;-78
2021/11/21 03:08:49;;;;;;;;;;;8.50;99.90;;;;;;5096237;28;19920;-79
2021/11/21 03:11:33;;;;;;;;;;;8.20;99.90;;;;;;5095250;28;20292;-78
2021/11/21 03:14:00;;;;;;;;;;;8.00;99.90;;;;;;5096418;28;19915;-78
2021/11/21 03:16:26;;;;;;;;;;;8.00;99.90;;;;;;5094851;28;20292;-78
2021/11/21 03:18:53;;;;;;;;;;;8.00;99.90;;;;;;5096321;28;19912;-78
2021/11/21 03:21:19;;;;;;;;;;;8.20;99.90;;;;;;5096055;28;19955;-79
2021/11/21 03:23:44;;;;;;;;;;;8.30;99.90;;;;;;5096617;28;19940;-78
2021/11/21 03:26:10;;;;;;;;;;;8.40;99.90;;;;;;5094740;28;20315;-78
2021/11/21 03:28:35;;;;;;;;;;;8.60;99.90;;;;;;5096000;28;20370;-78
2021/11/21 03:31:01;;;;;;;;;;;8.60;99.90;;;;;;5095846;28;19912;-78
2021/11/21 03:33:26;;;;;;;;;;;8.40;99.90;;;;;;5095893;28;19908;-78
2021/11/21 03:35:52;;;;;;;;;;;8.30;99.90;;;;;;5094559;28;20309;-78
2021/11/21 03:38:18;;;;;;;;;;;8.40;99.90;;;;;;5095947;28;19908;-78
2021/11/21 03:40:43;;;;;;;;;;;8.50;99.90;;;;;;5095821;28;19915;-78
2021/11/21 03:43:09;;;;;;;;;;;8.60;99.90;;;;;;5095845;28;19931;-78
2021/11/21 03:45:34;;;;;;;;;;;8.60;99.90;;;;;;5095716;28;19908;-78
2021/11/21 03:48:00;;;;;;;;;;;8.70;99.90;;;;;;5095610;28;19908;-77
2021/11/21 03:50:26;;;;;;;;;;;8.90;99.90;;;;;;5095855;28;19912;-78
2021/11/21 03:52:52;;;;;;;;;;;8.80;99.90;;;;;;5095540;28;19908;-78
2021/11/21 03:55:18;;;;;;;;;;;9.00;99.90;;;;;;5095740;28;19951;-78
2021/11/21 03:57:44;;;;;;;;;;;9.00;99.90;;;;;;5094084;28;19915;-78
2021/11/21 04:00:12;;;;;;;;;;;8.90;99.90;;;;;;5095314;28;19908;-78
2021/11/21 04:02:39;;;;;;;;;;;9.00;99.90;;;;;;5095615;28;19995;-78
2021/11/21 04:05:04;;;;;;;;;;;9.00;99.90;;;;;;5095281;28;19915;-78
2021/11/21 04:07:32;;;;;;;;;;;9.10;99.90;;;;;;5095195;28;19908;-78
2021/11/21 04:09:58;;;;;;;;;;;9.10;99.90;;;;;;5095039;28;20004;-78
2021/11/21 04:12:23;;;;;;;;;;;8.80;99.90;;;;;;5093745;28;20439;-78
2021/11/21 04:14:49;;;;;;;;;;;8.30;99.90;;;;;;5095109;28;19943;-78
2021/11/21 04:17:14;;;;;;;;;;;8.40;99.90;;;;;;5095010;28;20379;-78
2021/11/21 04:19:40;;;;;;;;;;;8.50;99.90;;;;;;5094986;28;20271;-77
2021/11/21 04:22:06;;;;;;;;;;;8.50;99.90;;;;;;5094997;28;19915;-78
2021/11/21 04:24:31;;;;;;;;;;;8.30;99.90;;;;;;5094877;28;19951;-78
2021/11/21 04:26:57;;;;;;;;;;;8.30;99.90;;;;;;5094901;28;19908;-78
2021/11/21 04:29:23;;;;;;;;;;;8.00;99.90;;;;;;5094800;28;19912;-78
2021/11/21 04:31:52;;;;;;;;;;;8.20;99.90;;;;;;5094679;28;19916;-78
2021/11/21 04:34:17;;;;;;;;;;;8.40;99.90;;;;;;5093406;28;19912;-78
2021/11/21 04:36:43;;;;;;;;;;;8.40;99.90;;;;;;5093363;28;20003;-78
2021/11/21 04:39:08;;;;;;;;;;;8.30;99.90;;;;;;5094631;28;19908;-78
2021/11/21 04:41:34;;;;;;;;;;;8.30;99.90;;;;;;5094546;28;19908;-78
2021/11/21 04:44:02;;;;;;;;;;;8.00;99.90;;;;;;5093261;28;19912;-77
2021/11/21 04:46:28;;;;;;;;;;;8.00;99.90;;;;;;5094446;28;19908;-78
2021/11/21 04:48:53;;;;;;;;;;;7.90;99.90;;;;;;5094435;28;19961;-78
2021/11/21 04:51:19;;;;;;;;;;;8.30;99.90;;;;;;5094516;28;19964;-78
2021/11/21 04:53:45;;;;;;;;;;;8.60;99.90;;;;;;5094363;28;19908;-78
2021/11/21 04:56:11;;;;;;;;;;;8.70;99.90;;;;;;5094476;28;19908;-78
2021/11/21 04:58:36;;;;;;;;;;;8.90;99.90;;;;;;5094342;28;19908;-78
2021/11/21 05:01:02;;;;;;;;;;;9.00;99.90;;;;;;5094244;28;19996;-78
2021/11/21 05:03:28;;;;;;;;;;;9.00;99.90;;;;;;5094218;28;19908;-78
2021/11/21 05:05:54;;;;;;;;;;;8.90;99.90;;;;;;5094202;28;19912;-78
2021/11/21 05:08:19;;;;;;;;;;;9.00;99.90;;;;;;5093925;28;19908;-78
2021/11/21 05:10:45;;;;;;;;;;;9.10;99.90;;;;;;5094093;28;20429;-78
2021/11/21 05:13:10;;;;;;;;;;;8.90;99.90;;;;;;5094012;28;20293;-79
2021/11/21 05:15:36;;;;;;;;;;;8.90;99.90;;;;;;5092746;28;19908;-79
2021/11/21 05:18:01;;;;;;;;;;;8.80;99.90;;;;;;5094270;28;20403;-79
2021/11/21 05:20:27;;;;;;;;;;;9.10;99.90;;;;;;5093968;28;19912;-79
2021/11/21 05:22:53;;;;;;;;;;;9.20;99.90;;;;;;5093935;28;19977;-79
2021/11/21 05:25:18;;;;;;;;;;;9.10;99.90;;;;;;5093921;28;19908;-79
2021/11/21 05:27:47;;;;;;;;;;;9.20;99.90;;;;;;5093971;28;20318;-79
2021/11/21 05:30:13;;;;;;;;;;;9.30;99.90;;;;;;5092556;28;19947;-79
2021/11/21 05:32:39;;;;;;;;;;;9.30;99.90;;;;;;5094072;28;19912;-80
2021/11/21 05:35:05;;;;;;;;;;;9.20;99.90;;;;;;5093267;28;19946;-79
2021/11/21 05:37:31;;;;;;;;;;;9.30;99.90;;;;;;5093747;28;19957;-79
2021/11/21 05:39:56;;;;;;;;;;;9.30;99.90;;;;;;5093735;28;20348;-79
2021/11/21 05:42:22;;;;;;;;;;;9.30;99.90;;;;;;5093705;28;19908;-79
2021/11/21 05:44:47;;;;;;;;;;;9.40;99.90;;;;;;5093790;28;20380;-79
2021/11/21 05:47:13;;;;;;;;;;;9.30;99.90;;;;;;5093640;28;19919;-79
2021/11/21 05:49:39;;;;;;;;;;;9.20;99.90;;;;;;5093680;28;20318;-79
2021/11/21 05:52:05;;;;;;;;;;;9.30;99.90;;;;;;5093763;28;19912;-79
2021/11/21 05:54:30;;;;;;;;;;;9.30;99.90;;;;;;5093994;28;19958;-79
2021/11/21 05:56:56;;;;;;;;;;;9.40;99.90;;;;;;5093849;28;19908;-79
2021/11/21 05:59:21;;;;;;;;;;;9.20;99.90;;;;;;5093564;28;19909;-79
2021/11/21 06:01:47;;;;;;;;;;;9.10;99.90;;;;;;5093589;28;20382;-79
2021/11/21 06:04:13;;;;;;;;;;;9.10;99.90;;;;;;5092221;28;19913;-80
2021/11/21 06:06:38;;;;;;;;;;;9.30;99.90;;;;;;5093521;28;19947;-79
2021/11/21 06:09:04;;;;;;;;;;;9.20;99.90;;;;;;5093551;28;20379;-79
2021/11/21 06:11:29;;;;;;;;;;;9.20;99.90;;;;;;5093434;28;19934;-79
2021/11/21 06:13:55;;;;;;;;;;;9.10;99.90;;;;;;5092205;28;19915;-79
2021/11/21 06:16:20;;;;;;;;;;;9.00;99.90;;;;;;5093754;28;19908;-79
2021/11/21 06:18:47;;;;;;;;;;;8.90;99.90;;;;;;5093810;28;20426;-79
2021/11/21 06:21:13;;;;;;;;;;;8.80;99.90;;;;;;5093410;28;19912;-79
2021/11/21 06:23:39;;;;;;;;;;;8.80;99.90;;;;;;5093417;28;19908;-80
2021/11/21 06:26:05;;;;;;;;;;;8.70;99.90;;;;;;5093294;28;19915;-79
2021/11/21 06:28:31;;;;;;;;;;;8.70;99.90;;;;;;5093668;28;20356;-79
2021/11/21 06:30:57;;;;;;;;;;;8.60;99.90;;;;;;5093205;28;19919;-79
2021/11/21 06:33:22;;;;;;;;;;;8.70;99.90;;;;;;5093281;28;19912;-80
2021/11/21 06:35:49;;;;;;;;;;;8.60;99.90;;;;;;5093292;28;19908;-79
2021/11/21 06:38:15;;;;;;;;;;;8.60;99.90;;;;;;5093221;28;19930;-79
2021/11/21 06:40:41;;;;;;;;;;;8.70;99.90;;;;;;5093164;28;20368;-79
2021/11/21 06:43:06;;;;;;;;;;;8.90;99.90;;;;;;5091873;28;19908;-79
2021/11/21 06:45:32;;;;;;;;;;;9.10;99.90;;;;;;5093242;28;19912;-79
2021/11/21 06:47:57;;;;;;;;;;;9.00;99.90;;;;;;5096174;28;19908;-79
2021/11/21 06:50:23;;;;;;;;;;;9.00;99.90;;;;;;5096748;28;19912;-79
2021/11/21 06:52:49;;;;;;;;;;;9.00;99.90;;;;;;5096631;28;19984;-79
2021/11/21 06:55:16;;;;;;;;;;;9.00;99.90;;;;;;5096597;28;20364;-79
2021/11/21 06:57:42;;;;;;;;;;;8.90;99.90;;;;;;5096592;28;20374;-79
2021/11/21 07:00:10;;;;;;;;;;;8.80;99.90;;;;;;5096501;28;19955;-79
2021/11/21 07:02:35;;;;;;;;;;;8.70;99.90;;;;;;5096475;28;20003;-79
2021/11/21 07:05:01;;;;;;;;;;;8.60;99.90;;;;;;5096528;28;20407;-79
2021/11/21 07:07:26;;;;;;;;;;;8.50;99.90;;;;;;5096550;28;19912;-78
2021/11/21 07:09:52;;;;;;;;;;;8.60;99.90;;;;;;5096153;28;19920;-80
2021/11/21 07:12:18;;;;;;;;;;;8.50;99.90;;;;;;5096200;28;19912;-79
2021/11/21 07:14:43;;;;;;;;;;;8.60;99.90;;;;;;5096240;28;19958;-79
2021/11/21 07:17:09;;;;;;;;;;;8.60;99.90;;;;;;5096192;28;19962;-79
2021/11/21 07:19:34;;;;;;;;;;;8.50;99.90;;;;;;5096270;28;19949;-79
2021/11/21 07:22:00;;;;;;;;;;;8.50;99.90;;;;;;5096100;28;20426;-79
2021/11/21 07:24:26;;;;;;;;;;;8.30;99.90;;;;;;5096072;28;19954;-79
2021/11/21 07:26:54;;;;;;;;;;;8.30;99.90;;;;;;5096008;28;19991;-79
2021/11/21 07:29:26;;;;;;;;;;;8.40;99.90;;;;;;5095965;28;20372;-80
2021/11/21 07:31:52;;;;;;;;;;;8.40;99.90;;;;;;5095850;28;20392;-79
2021/11/21 07:34:17;;;;;;;;;;;8.20;99.90;;;;;;5095863;28;19916;-79
2021/11/21 07:36:43;;;;;;;;;;;8.10;99.90;;;;;;5095828;28;19946;-79
2021/11/21 07:39:08;;;;;;;;;;;8.00;99.90;;;;;;5095887;28;19908;-79
2021/11/21 07:41:34;;;;;;;;;;;8.20;99.90;;;;;;5095681;28;20268;-79
2021/11/21 07:44:01;;;;;;;;;;;8.20;99.90;;;;;;5095655;28;19932;-80
2021/11/21 07:46:27;;;;;;;;;;;8.20;99.90;;;;;;5095915;28;19908;-79
2021/11/21 07:48:53;;;;;;;;;;;8.30;99.90;;;;;;5094322;28;19945;-79
2021/11/21 07:51:19;;;;;;;;;;;8.30;99.90;;;;;;5095473;28;20284;-79
2021/11/21 07:53:45;;;;;;;;;;;8.30;99.90;;;;;;5095339;28;19915;-79
2021/11/21 07:56:10;;;;;;;;;;;8.30;99.90;;;;;;5095361;28;19912;-79
2021/11/21 07:58:36;;;;;;;;;;;8.50;99.90;;;;;;5095467;28;19995;-79
2021/11/21 08:01:02;;;;;;;;;;;8.70;99.90;;;;;;5095331;28;20379;-79
2021/11/21 08:03:27;;;;;;;;;;;8.80;99.90;;;;;;5095360;28;19943;-80
2021/11/21 08:05:53;;;;;;;;;;;8.80;99.90;;;;;;5095468;28;20264;-79
2021/11/21 08:08:18;;;;;;;;;;;8.90;99.90;;;;;;5095021;28;19931;-80
2021/11/21 08:10:44;;;;;;;;;;;9.10;99.90;;;;;;5095374;28;19916;-80
2021/11/21 08:13:09;;;;;;;;;;;9.00;99.90;;;;;;5095137;28;19913;-80
2021/11/21 08:15:35;;;;;;;;;;;9.00;99.90;;;;;;5095073;28;19915;-80
2021/11/21 08:18:01;;;;;;;;;;;9.20;99.90;;;;;;5095004;28;20006;-79
2021/11/21 08:20:26;;;;;;;;;;;9.30;99.90;;;;;;5095443;28;20449;-80
2021/11/21 08:22:53;;;;;;;;;;;9.60;99.90;;;;;;5095317;28;19942;-79
2021/11/21 08:25:18;;;;;;;;;;;9.80;99.90;;;;;;5095159;28;19957;-80
2021/11/21 08:27:44;;;;;;;;;;;10.10;99.90;;;;;;5094888;28;19908;-79
2021/11/21 08:30:10;;;;;;;;;;;10.30;99.90;;;;;;5094795;28;20425;-80
2021/11/21 08:32:36;;;;;;;;;;;10.80;99.90;;;;;;5094664;28;19914;-80
2021/11/21 08:35:02;;;;;;;;;;;11.70;99.90;;;;;;5094926;28;19931;-79
2021/11/21 08:37:27;;;;;;;;;;;12.90;99.90;;;;;;5094900;28;19908;-80
2021/11/21 08:39:53;;;;;;;;;;;13.80;99.90;;;;;;5094539;28;19912;-80
2021/11/21 08:42:19;;;;;;;;;;;13.40;99.90;;;;;;5094570;28;19915;-80
2021/11/21 08:44:45;;;;;;;;;;;13.20;99.90;;;;;;5094505;28;19958;-80
2021/11/21 08:47:10;;;;;;;;;;;13.00;99.90;;;;;;5094494;28;19909;-79
2021/11/21 08:49:36;;;;;;;;;;;13.00;99.90;;;;;;5094577;28;19951;-79
2021/11/21 08:52:02;;;;;;;;;;;12.90;99.90;;;;;;5094370;28;20006;-80
2021/11/21 08:54:29;;;;;;;;;;;13.10;99.90;;;;;;5094502;28;19915;-80
2021/11/21 08:56:54;;;;;;;;;;;13.00;99.90;;;;;;5094305;28;19913;-80
2021/11/21 08:59:20;;;;;;;;;;;13.00;99.90;;;;;;5094281;28;19909;-80
2021/11/21 09:01:46;;;;;;;;;;;12.80;99.90;;;;;;5094239;28;19915;-80
2021/11/21 09:04:13;;;;;;;;;;;12.50;99.90;;;;;;5094208;28;19934;-79
2021/11/21 09:06:39;;;;;;;;;;;12.10;99.90;;;;;;5094534;28;19908;-79
2021/11/21 09:09:05;;;;;;;;;;;12.10;99.90;;;;;;5093173;28;19920;-79
2021/11/21 09:11:30;;;;;;;;;;;12.10;99.90;;;;;;5094177;28;19961;-79
2021/11/21 09:13:56;;;;;;;;;;;11.50;99.90;;;;;;5094007;28;20347;-79
2021/11/21 09:16:22;;;;;;;;;;;11.60;99.90;;;;;;5094036;28;19960;-79
2021/11/21 09:18:47;;;;;;;;;;;11.70;99.90;;;;;;5093951;28;19943;-79
2021/11/21 09:21:13;;;;;;;;;;;11.80;99.90;;;;;;5093992;28;19912;-79
2021/11/21 09:23:39;;;;;;;;;;;11.70;99.90;;;;;;5092649;28;20045;-79
2021/11/21 09:26:05;;;;;;;;;;;11.70;99.90;;;;;;5093870;28;20296;-80
2021/11/21 09:28:31;;;;;;;;;;;11.80;99.90;;;;;;5094201;28;19908;-80
2021/11/21 09:30:56;;;;;;;;;;;11.90;99.90;;;;;;5093874;28;20391;-80
2021/11/21 09:33:23;;;;;;;;;;;11.90;99.90;;;;;;5093771;28;19908;-79
2021/11/21 09:35:49;;;;;;;;;;;12.00;99.90;;;;;;5093767;28;19908;-79
2021/11/21 09:38:15;;;;;;;;;;;12.00;99.90;;;;;;5093757;28;19955;-79
2021/11/21 09:40:41;;;;;;;;;;;12.00;99.90;;;;;;5094093;28;19999;-79
2021/11/21 09:43:06;;;;;;;;;;;12.10;99.90;;;;;;5093743;28;19959;-79
2021/11/21 09:45:32;;;;;;;;;;;12.00;99.90;;;;;;5093717;28;19915;-79
2021/11/21 09:47:59;;;;;;;;;;;12.00;99.90;;;;;;5093815;28;19909;-79
2021/11/21 09:50:26;;;;;;;;;;;11.60;99.90;;;;;;5093637;28;19954;-79
2021/11/21 09:52:52;;;;;;;;;;;11.10;99.90;;;;;;5093572;28;19912;-80
2021/11/21 09:55:19;;;;;;;;;;;11.00;99.90;;;;;;5093735;28;19954;-79
2021/11/21 09:57:44;;;;;;;;;;;11.20;99.90;;;;;;5093717;28;19908;-80
2021/11/21 10:00:14;;;;;;;;;;;11.00;99.90;;;;;;5093615;28;19961;-80
2021/11/21 10:02:44;;;;;;;;;;;11.10;99.90;;;;;;5093599;28;19915;-79
2021/11/21 10:05:25;;;;;;;;;;;10.90;99.90;;;;;;5093481;28;20273;-79
2021/11/21 10:08:08;;;;;;;;;;;10.80;99.90;;;;;;5093546;28;20447;-80
2021/11/21 10:10:36;;;;;;;;;;;11.00;99.90;;;;;;5093509;28;20388;-79
2021/11/21 10:13:01;;;;;;;;;;;11.00;99.90;;;;;;5092012;28;19912;-80
2021/11/21 10:15:27;;;;;;;;;;;11.10;99.90;;;;;;5093375;28;19915;-79
2021/11/21 10:17:56;;;;;;;;;;;11.40;99.90;;;;;;5093254;28;19923;-80
2021/11/21 10:20:22;;;;;;;;;;;11.60;99.90;;;;;;5094028;28;20300;-79
2021/11/21 10:22:52;;;;;;;;;;;11.70;99.90;;;;;;5097245;28;19915;-80
2021/11/21 10:25:33;;;;;;;;;;;11.60;99.90;;;;;;5097308;28;19954;-80
2021/11/21 10:28:13;;;;;;;;;;;11.60;99.90;;;;;;5097178;28;20329;-79
2021/11/21 10:30:57;;;;;;;;;;;11.40;99.90;;;;;;5097131;28;20425;-79
2021/11/21 10:33:26;;;;;;;;;;;11.40;99.90;;;;;;5097053;28;20396;-79
2021/11/21 10:35:58;;;;;;;;;;;11.30;99.90;;;;;;5097034;28;20013;-80
2021/11/21 10:38:30;;;;;;;;;;;11.20;99.90;;;;;;5096940;28;19951;-79
2021/11/21 10:40:56;;;;;;;;;;;11.20;99.90;;;;;;5097160;28;19909;-79
2021/11/21 10:43:21;;;;;;;;;;;11.10;99.90;;;;;;5097013;28;19995;-79
2021/11/21 10:45:49;;;;;;;;;;;11.00;99.90;;;;;;5096836;28;20352;-79
2021/11/21 10:48:22;;;;;;;;;;;10.80;99.90;;;;;;5096771;28;19954;-79
2021/11/21 10:50:50;;;;;;;;;;;10.90;99.90;;;;;;5096713;28;19908;-79
2021/11/21 10:53:16;;;;;;;;;;;10.70;99.90;;;;;;5096860;28;19915;-80
2021/11/21 10:55:41;;;;;;;;;;;10.50;99.90;;;;;;5096715;28;20288;-80
2021/11/21 10:58:11;;;;;;;;;;;10.50;99.90;;;;;;5096764;28;19908;-80
2021/11/21 11:00:36;;;;;;;;;;;10.30;99.90;;;;;;5096574;28;20296;-80
2021/11/21 11:03:02;;;;;;;;;;;10.30;99.90;;;;;;5096466;28;19908;-80
2021/11/21 11:05:28;;;;;;;;;;;10.30;99.90;;;;;;5096620;28;19915;-80
2021/11/21 11:07:55;;;;;;;;;;;10.40;99.90;;;;;;5096431;28;19912;-80
2021/11/21 11:10:23;;;;;;;;;;;10.40;99.90;;;;;;5095862;28;19927;-80
2021/11/21 11:12:50;;;;;;;;;;;10.40;99.90;;;;;;5096135;28;20399;-80
2021/11/21 11:15:16;;;;;;;;;;;10.50;99.90;;;;;;5096239;28;19908;-80
2021/11/21 11:17:42;;;;;;;;;;;10.50;99.90;;;;;;5096221;28;19915;-81
2021/11/21 11:20:12;;;;;;;;;;;10.30;99.90;;;;;;5096199;28;19908;-80
2021/11/21 11:22:40;;;;;;;;;;;10.30;99.90;;;;;;5096173;28;20431;-80
2021/11/21 11:25:08;;;;;;;;;;;10.20;99.90;;;;;;5096066;28;19951;-80
2021/11/21 11:27:52;;;;;;;;;;;10.30;99.90;;;;;;5096176;28;20045;-80
2021/11/21 11:30:27;;;;;;;;;;;10.20;99.90;;;;;;5095916;28;19912;-80
2021/11/21 11:33:03;;;;;;;;;;;10.30;99.90;;;;;;5095091;28;20010;-80
2021/11/21 11:35:30;;;;;;;;;;;10.30;99.90;;;;;;5096029;28;19919;-80
2021/11/21 11:37:56;;;;;;;;;;;10.30;99.90;;;;;;5095834;28;19957;-80
2021/11/21 11:40:31;;;;;;;;;;;10.40;99.90;;;;;;5095721;28;20404;-80
2021/11/21 11:43:20;;;;;;;;;;;10.30;99.90;;;;;;5095979;28;19956;-80
2021/11/21 11:45:47;;;;;;;;;;;10.40;99.90;;;;;;5094357;28;19908;-80
2021/11/21 11:48:31;;;;;;;;;;;10.50;99.90;;;;;;5095758;28;19912;-80
2021/11/21 11:50:57;;;;;;;;;;;10.30;99.90;;;;;;5095492;28;20292;-80
2021/11/21 11:53:41;;;;;;;;;;;10.50;99.90;;;;;;5095520;28;20341;-80
2021/11/21 11:56:21;;;;;;;;;;;10.60;99.90;;;;;;5095564;28;19908;-80
2021/11/21 11:58:50;;;;;;;;;;;10.50;99.90;;;;;;5095405;28;19977;-80
2021/11/21 12:01:43;;;;;;;;;;;10.40;99.90;;;;;;5095330;28;20038;-80
2021/11/21 12:04:29;;;;;;;;;;;10.60;99.90;;;;;;5095488;28;19915;-80
2021/11/21 12:07:03;;;;;;;;;;;10.70;99.90;;;;;;5095275;28;19915;-80
2021/11/21 12:09:29;;;;;;;;;;;10.70;99.90;;;;;;5095014;28;19978;-80
2021/11/21 12:12:09;;;;;;;;;;;10.70;99.90;;;;;;5095254;28;20053;-80
2021/11/21 12:14:34;;;;;;;;;;;10.70;99.90;;;;;;5095346;28;20369;-80
2021/11/21 12:17:02;;;;;;;;;;;10.80;99.90;;;;;;5095151;28;19957;-80
2021/11/21 12:19:42;;;;;;;;;;;10.90;99.90;;;;;;5095004;28;19908;-80
2021/11/21 12:22:27;;;;;;;;;;;11.10;99.90;;;;;;5095222;28;19908;-80
2021/11/21 12:24:53;;;;;;;;;;;11.10;99.90;;;;;;5094897;28;19915;-80
2021/11/21 12:27:25;;;;;;;;;;;11.20;99.90;;;;;;5094856;28;19908;-80
2021/11/21 12:30:03;;;;;;;;;;;11.20;99.90;;;;;;5095089;28;19956;-80
2021/11/21 12:32:30;;;;;;;;;;;11.10;99.90;;;;;;5094696;28;19919;-80
2021/11/21 12:34:56;;;;;;;;;;;11.20;99.90;;;;;;5094801;28;20391;-80
2021/11/21 12:37:35;;;;;;;;;;;11.30;99.90;;;;;;5094665;28;19916;-80
2021/11/21 12:40:07;;;;;;;;;;;11.50;99.90;;;;;;5094548;28;20101;-80
2021/11/21 12:42:33;;;;;;;;;;;11.50;99.90;;;;;;5094599;28;19908;-80
2021/11/21 12:45:03;;;;;;;;;;;11.60;99.90;;;;;;5094482;28;19981;-80
2021/11/21 12:47:29;;;;;;;;;;;11.60;99.90;;;;;;5092964;28;19908;-80
2021/11/21 12:49:55;;;;;;;;;;;11.80;99.90;;;;;;5094813;28;19908;-80
2021/11/21 12:52:20;;;;;;;;;;;11.70;99.90;;;;;;5094442;28;19912;-80
2021/11/21 12:54:50;;;;;;;;;;;11.70;99.90;;;;;;5094354;28;19909;-80
2021/11/21 12:57:15;;;;;;;;;;;11.60;99.90;;;;;;5094315;28;19915;-80
2021/11/21 12:59:53;;;;;;;;;;;11.50;99.90;;;;;;5094479;28;20288;-81
2021/11/21 13:02:22;;;;;;;;;;;11.30;99.90;;;;;;5094249;28;20299;-80
2021/11/21 13:04:59;;;;;;;;;;;11.30;99.90;;;;;;5094287;28;20369;-80
2021/11/21 13:07:34;;;;;;;;;;;11.20;99.90;;;;;;5094165;28;20327;-80
2021/11/21 13:10:09;;;;;;;;;;;11.20;99.90;;;;;;5092379;28;19963;-80
2021/11/21 13:12:38;;;;;;;;;;;11.30;99.90;;;;;;5094035;28;19920;-80
2021/11/21 13:15:09;;;;;;;;;;;11.40;99.90;;;;;;5091795;28;20198;-80
2021/11/21 13:17:35;;;;;;;;;;;11.50;99.90;;;;;;5094018;28;19958;-80
2021/11/21 13:20:05;;;;;;;;;;;11.40;99.90;;;;;;5093958;28;19908;-80
2021/11/21 13:22:46;;;;;;;;;;;11.40;99.90;;;;;;5092654;28;19908;-80
2021/11/21 13:25:30;;;;;;;;;;;11.60;99.90;;;;;;5093825;28;19921;-80
2021/11/21 13:28:15;;;;;;;;;;;11.60;99.90;;;;;;5092479;28;19915;-80
2021/11/21 13:30:40;;;;;;;;;;;11.70;99.90;;;;;;5094043;28;19908;-80
2021/11/21 13:33:16;;;;;;;;;;;12.00;99.90;;;;;;5093994;28;19919;-80
2021/11/21 13:35:42;;;;;;;;;;;11.90;99.90;;;;;;5093879;28;20006;-80
2021/11/21 13:38:09;;;;;;;;;;;12.10;99.90;;;;;;5093947;28;20356;-80
2021/11/21 13:40:34;;;;;;;;;;;12.00;99.90;;;;;;5093676;28;20285;-80
2021/11/21 13:43:10;;;;;;;;;;;12.00;99.90;;;;;;5093862;28;19908;-80
2021/11/21 13:45:36;;;;;;;;;;;11.90;99.90;;;;;;5093654;28;20360;-80
2021/11/21 13:48:02;;;;;;;;;;;12.00;99.90;;;;;;5094002;28;19915;-80
2021/11/21 13:50:30;;;;;;;;;;;12.00;99.90;;;;;;5093649;28;19908;-80
2021/11/21 13:52:57;;;;;;;;;;;11.90;99.90;;;;;;5092254;28;19916;-80
2021/11/21 13:55:24;;;;;;;;;;;11.80;99.90;;;;;;5094349;28;19908;-80
2021/11/21 13:57:50;;;;;;;;;;;11.80;99.90;;;;;;5097955;28;20002;-80
2021/11/21 14:00:17;;;;;;;;;;;11.80;99.90;;;;;;5097845;28;19974;-79
2021/11/21 14:02:45;;;;;;;;;;;11.70;99.90;;;;;;5097762;28;19908;-80
2021/11/21 14:05:13;;;;;;;;;;;11.70;99.90;;;;;;5097595;28;20392;-80
2021/11/21 14:07:54;;;;;;;;;;;11.80;99.90;;;;;;5096253;28;20379;-80
2021/11/21 14:10:26;;;;;;;;;;;11.80;99.90;;;;;;5097106;28;19920;-80
2021/11/21 14:13:04;;;;;;;;;;;11.70;99.90;;;;;;5097470;28;20376;-79
2021/11/21 14:15:29;;;;;;;;;;;11.70;99.90;;;;;;5097429;28;19908;-80
2021/11/21 14:17:58;;;;;;;;;;;11.70;99.90;;;;;;5097824;28;19923;-80
2021/11/21 14:20:57;;;;;;;;;;;11.70;99.90;;;;;;5097381;28;20335;-80
2021/11/21 14:23:24;;;;;;;;;;;11.60;99.90;;;;;;5097023;28;19973;-80
2021/11/21 14:25:54;;;;;;;;;;;11.40;99.90;;;;;;5096720;28;20027;-80